sensor_id;sensor_type;location;lat;lon;timestamp;temperature;humidity
49379;DHT22;35254;47.990;-1.608;2023-05-20T00:00:49;20.70;52.20
49379;DHT22;35254;47.990;-1.608;2023-05-20T00:03:16;20.70;52.10
49379;DHT22;35254;47.990;-1.608;2023-05-20T00:05:41;20.60;52.20
49379;DHT22;35254;47.990;-1.608;2023-05-20T00:08:07;20.60;52.50
49379;DHT22;35254;47.990;-1.608;2023-05-20T00:10:37;20.60;52.40
49379;DHT22;35254;47.990;-1.608;2023-05-20T00:13:03;20.60;52.50
49379;DHT22;35254;47.990;-1.608;2023-05-20T00:15:29;20.60;52.50
49379;DHT22;35254;47.990;-1.608;2023-05-20T00:17:55;20.60;52.70
49379;DHT22;35254;47.990;-1.608;2023-05-20T00:20:20;20.60;52.80
49379;DHT22;35254;47.990;-1.608;2023-05-20T00:22:46;20.60;52.90
49379;DHT22;35254;47.990;-1.608;2023-05-20T00:25:12;20.60;52.90
49379;DHT22;35254;47.990;-1.608;2023-05-20T00:27:39;20.60;53.10
49379;DHT22;35254;47.990;-1.608;2023-05-20T00:30:06;20.60;53.10
49379;DHT22;35254;47.990;-1.608;2023-05-20T00:32:32;20.60;53.10
49379;DHT22;35254;47.990;-1.608;2023-05-20T00:34:58;20.50;53.10
49379;DHT22;35254;47.990;-1.608;2023-05-20T00:37:24;20.50;53.20
49379;DHT22;35254;47.990;-1.608;2023-05-20T00:39:50;20.60;53.40
49379;DHT22;35254;47.990;-1.608;2023-05-20T00:42:26;20.50;53.40
49379;DHT22;35254;47.990;-1.608;2023-05-20T00:44:52;20.50;53.40
49379;DHT22;35254;47.990;-1.608;2023-05-20T00:47:24;20.50;53.70
49379;DHT22;35254;47.990;-1.608;2023-05-20T00:49:50;20.50;53.60
49379;DHT22;35254;47.990;-1.608;2023-05-20T00:52:17;20.50;53.40
49379;DHT22;35254;47.990;-1.608;2023-05-20T00:54:44;20.50;53.50
49379;DHT22;35254;47.990;-1.608;2023-05-20T00:57:10;20.50;53.60
49379;DHT22;35254;47.990;-1.608;2023-05-20T00:59:36;20.40;53.60
49379;DHT22;35254;47.990;-1.608;2023-05-20T01:02:03;20.40;53.60
49379;DHT22;35254;47.990;-1.608;2023-05-20T01:04:30;20.50;53.70
49379;DHT22;35254;47.990;-1.608;2023-05-20T01:06:56;20.50;53.80
49379;DHT22;35254;47.990;-1.608;2023-05-20T01:09:23;20.40;53.80
49379;DHT22;35254;47.990;-1.608;2023-05-20T01:12:07;20.40;53.80
49379;DHT22;35254;47.990;-1.608;2023-05-20T01:14:42;20.40;53.80
49379;DHT22;35254;47.990;-1.608;2023-05-20T01:17:11;20.40;53.90
49379;DHT22;35254;47.990;-1.608;2023-05-20T01:19:41;20.40;53.90
49379;DHT22;35254;47.990;-1.608;2023-05-20T01:22:11;20.40;53.90
49379;DHT22;35254;47.990;-1.608;2023-05-20T01:24:44;20.40;54.00
49379;DHT22;35254;47.990;-1.608;2023-05-20T01:27:13;20.40;54.00
49379;DHT22;35254;47.990;-1.608;2023-05-20T01:29:39;20.40;54.00
49379;DHT22;35254;47.990;-1.608;2023-05-20T01:32:08;20.40;53.90
49379;DHT22;35254;47.990;-1.608;2023-05-20T01:34:36;20.30;54.00
49379;DHT22;35254;47.990;-1.608;2023-05-20T01:37:04;20.30;53.70
49379;DHT22;35254;47.990;-1.608;2023-05-20T01:39:33;20.30;53.80
49379;DHT22;35254;47.990;-1.608;2023-05-20T01:42:01;20.30;53.80
49379;DHT22;35254;47.990;-1.608;2023-05-20T01:44:28;20.40;54.00
49379;DHT22;35254;47.990;-1.608;2023-05-20T01:46:54;20.30;54.00
49379;DHT22;35254;47.990;-1.608;2023-05-20T01:49:19;20.30;54.00
49379;DHT22;35254;47.990;-1.608;2023-05-20T01:51:45;20.30;54.00
49379;DHT22;35254;47.990;-1.608;2023-05-20T01:54:11;20.30;53.80
49379;DHT22;35254;47.990;-1.608;2023-05-20T01:56:36;20.30;53.90
49379;DHT22;35254;47.990;-1.608;2023-05-20T01:59:02;20.20;54.10
49379;DHT22;35254;47.990;-1.608;2023-05-20T02:01:27;20.20;54.30
49379;DHT22;35254;47.990;-1.608;2023-05-20T02:03:53;20.20;54.20
49379;DHT22;35254;47.990;-1.608;2023-05-20T02:06:18;20.20;54.20
49379;DHT22;35254;47.990;-1.608;2023-05-20T02:08:44;20.20;54.10
49379;DHT22;35254;47.990;-1.608;2023-05-20T02:11:10;20.20;54.20
49379;DHT22;35254;47.990;-1.608;2023-05-20T02:13:35;20.20;54.20
49379;DHT22;35254;47.990;-1.608;2023-05-20T02:16:01;20.20;54.30
49379;DHT22;35254;47.990;-1.608;2023-05-20T02:18:27;20.20;54.20
49379;DHT22;35254;47.990;-1.608;2023-05-20T02:20:53;20.20;54.20
49379;DHT22;35254;47.990;-1.608;2023-05-20T02:23:19;20.20;54.40
49379;DHT22;35254;47.990;-1.608;2023-05-20T02:25:44;20.20;54.10
49379;DHT22;35254;47.990;-1.608;2023-05-20T02:28:10;20.20;54.30
49379;DHT22;35254;47.990;-1.608;2023-05-20T02:30:37;20.20;54.10
49379;DHT22;35254;47.990;-1.608;2023-05-20T02:33:03;20.20;54.40
49379;DHT22;35254;47.990;-1.608;2023-05-20T02:35:29;20.20;54.60
49379;DHT22;35254;47.990;-1.608;2023-05-20T02:37:54;20.10;54.50
49379;DHT22;35254;47.990;-1.608;2023-05-20T02:40:21;20.10;54.40
49379;DHT22;35254;47.990;-1.608;2023-05-20T02:42:47;20.20;54.40
49379;DHT22;35254;47.990;-1.608;2023-05-20T02:45:12;20.10;54.50
49379;DHT22;35254;47.990;-1.608;2023-05-20T02:47:38;20.10;54.30
49379;DHT22;35254;47.990;-1.608;2023-05-20T02:50:04;20.10;54.50
49379;DHT22;35254;47.990;-1.608;2023-05-20T02:52:31;20.10;54.40
49379;DHT22;35254;47.990;-1.608;2023-05-20T02:54:57;20.10;54.40
49379;DHT22;35254;47.990;-1.608;2023-05-20T02:57:23;20.10;54.40
49379;DHT22;35254;47.990;-1.608;2023-05-20T02:59:48;20.10;54.40
49379;DHT22;35254;47.990;-1.608;2023-05-20T03:02:14;20.10;54.20
49379;DHT22;35254;47.990;-1.608;2023-05-20T03:04:40;20.10;54.50
49379;DHT22;35254;47.990;-1.608;2023-05-20T03:07:06;20.10;54.30
49379;DHT22;35254;47.990;-1.608;2023-05-20T03:09:34;20.00;54.40
49379;DHT22;35254;47.990;-1.608;2023-05-20T03:12:00;20.10;54.30
49379;DHT22;35254;47.990;-1.608;2023-05-20T03:14:25;20.10;54.20
49379;DHT22;35254;47.990;-1.608;2023-05-20T03:16:51;20.00;54.30
49379;DHT22;35254;47.990;-1.608;2023-05-20T03:19:19;20.00;54.60
49379;DHT22;35254;47.990;-1.608;2023-05-20T03:21:45;20.00;54.30
49379;DHT22;35254;47.990;-1.608;2023-05-20T03:24:11;20.00;54.60
49379;DHT22;35254;47.990;-1.608;2023-05-20T03:26:36;20.10;54.20
49379;DHT22;35254;47.990;-1.608;2023-05-20T03:29:07;20.00;54.30
49379;DHT22;35254;47.990;-1.608;2023-05-20T03:31:33;20.00;54.30
49379;DHT22;35254;47.990;-1.608;2023-05-20T03:33:59;20.00;54.30
49379;DHT22;35254;47.990;-1.608;2023-05-20T03:36:24;20.00;54.30
49379;DHT22;35254;47.990;-1.608;2023-05-20T03:38:50;20.00;54.40
49379;DHT22;35254;47.990;-1.608;2023-05-20T03:41:15;20.00;54.40
49379;DHT22;35254;47.990;-1.608;2023-05-20T03:43:41;20.00;54.30
49379;DHT22;35254;47.990;-1.608;2023-05-20T03:46:07;20.00;54.40
49379;DHT22;35254;47.990;-1.608;2023-05-20T03:48:32;20.00;54.20
49379;DHT22;35254;47.990;-1.608;2023-05-20T03:50:58;20.00;54.30
49379;DHT22;35254;47.990;-1.608;2023-05-20T03:53:23;20.00;54.30
49379;DHT22;35254;47.990;-1.608;2023-05-20T03:55:49;19.90;54.30
49379;DHT22;35254;47.990;-1.608;2023-05-20T03:58:15;19.90;54.40
49379;DHT22;35254;47.990;-1.608;2023-05-20T04:00:41;19.90;54.50
49379;DHT22;35254;47.990;-1.608;2023-05-20T04:03:06;19.90;54.50
49379;DHT22;35254;47.990;-1.608;2023-05-20T04:05:33;19.90;54.50
49379;DHT22;35254;47.990;-1.608;2023-05-20T04:07:59;19.90;54.30
49379;DHT22;35254;47.990;-1.608;2023-05-20T04:10:24;19.90;54.50
49379;DHT22;35254;47.990;-1.608;2023-05-20T04:12:50;19.90;54.50
49379;DHT22;35254;47.990;-1.608;2023-05-20T04:15:16;19.90;54.80
49379;DHT22;35254;47.990;-1.608;2023-05-20T04:17:43;19.90;54.60
49379;DHT22;35254;47.990;-1.608;2023-05-20T04:20:12;19.90;54.60
49379;DHT22;35254;47.990;-1.608;2023-05-20T04:22:38;19.90;54.60
49379;DHT22;35254;47.990;-1.608;2023-05-20T04:25:04;19.80;54.80
49379;DHT22;35254;47.990;-1.608;2023-05-20T04:27:31;19.90;54.70
49379;DHT22;35254;47.990;-1.608;2023-05-20T04:29:58;19.90;54.60
49379;DHT22;35254;47.990;-1.608;2023-05-20T04:32:23;19.90;54.50
49379;DHT22;35254;47.990;-1.608;2023-05-20T04:34:49;19.80;54.70
49379;DHT22;35254;47.990;-1.608;2023-05-20T04:37:15;19.90;54.70
49379;DHT22;35254;47.990;-1.608;2023-05-20T04:39:40;19.80;54.80
49379;DHT22;35254;47.990;-1.608;2023-05-20T04:42:07;19.80;54.70
49379;DHT22;35254;47.990;-1.608;2023-05-20T04:44:33;19.80;54.60
49379;DHT22;35254;47.990;-1.608;2023-05-20T04:46:59;19.80;54.70
49379;DHT22;35254;47.990;-1.608;2023-05-20T04:49:25;19.80;54.80
49379;DHT22;35254;47.990;-1.608;2023-05-20T04:51:51;19.80;54.60
49379;DHT22;35254;47.990;-1.608;2023-05-20T04:54:17;19.80;54.70
49379;DHT22;35254;47.990;-1.608;2023-05-20T04:56:44;19.80;54.80
49379;DHT22;35254;47.990;-1.608;2023-05-20T04:59:11;19.80;54.60
49379;DHT22;35254;47.990;-1.608;2023-05-20T05:01:37;19.80;54.80
49379;DHT22;35254;47.990;-1.608;2023-05-20T05:04:02;19.80;54.80
49379;DHT22;35254;47.990;-1.608;2023-05-20T05:06:28;19.70;54.80
49379;DHT22;35254;47.990;-1.608;2023-05-20T05:08:54;19.70;54.90
49379;DHT22;35254;47.990;-1.608;2023-05-20T05:11:20;19.80;54.70
49379;DHT22;35254;47.990;-1.608;2023-05-20T05:13:45;19.70;54.80
49379;DHT22;35254;47.990;-1.608;2023-05-20T05:16:11;19.70;54.90
49379;DHT22;35254;47.990;-1.608;2023-05-20T05:18:37;19.70;54.90
49379;DHT22;35254;47.990;-1.608;2023-05-20T05:21:04;19.70;55.00
49379;DHT22;35254;47.990;-1.608;2023-05-20T05:23:30;19.70;55.20
49379;DHT22;35254;47.990;-1.608;2023-05-20T05:25:56;19.70;55.00
49379;DHT22;35254;47.990;-1.608;2023-05-20T05:28:22;19.70;55.10
49379;DHT22;35254;47.990;-1.608;2023-05-20T05:30:48;19.70;55.10
49379;DHT22;35254;47.990;-1.608;2023-05-20T05:33:14;19.70;54.90
49379;DHT22;35254;47.990;-1.608;2023-05-20T05:35:41;19.70;55.00
49379;DHT22;35254;47.990;-1.608;2023-05-20T05:38:07;19.70;55.10
49379;DHT22;35254;47.990;-1.608;2023-05-20T05:40:33;19.70;55.10
49379;DHT22;35254;47.990;-1.608;2023-05-20T05:42:58;19.70;55.10
49379;DHT22;35254;47.990;-1.608;2023-05-20T05:45:24;19.70;55.00
49379;DHT22;35254;47.990;-1.608;2023-05-20T05:47:50;19.70;55.00
49379;DHT22;35254;47.990;-1.608;2023-05-20T05:50:15;19.70;55.00
49379;DHT22;35254;47.990;-1.608;2023-05-20T05:52:41;19.60;55.20
49379;DHT22;35254;47.990;-1.608;2023-05-20T05:55:08;19.60;55.20
49379;DHT22;35254;47.990;-1.608;2023-05-20T05:57:34;19.60;55.20
49379;DHT22;35254;47.990;-1.608;2023-05-20T06:00:00;19.60;55.40
49379;DHT22;35254;47.990;-1.608;2023-05-20T06:02:25;19.60;55.30
49379;DHT22;35254;47.990;-1.608;2023-05-20T06:04:51;19.60;55.30
49379;DHT22;35254;47.990;-1.608;2023-05-20T06:07:17;19.60;55.20
49379;DHT22;35254;47.990;-1.608;2023-05-20T06:09:43;19.60;55.30
49379;DHT22;35254;47.990;-1.608;2023-05-20T06:12:09;19.60;55.50
49379;DHT22;35254;47.990;-1.608;2023-05-20T06:14:35;19.60;55.30
49379;DHT22;35254;47.990;-1.608;2023-05-20T06:17:01;19.60;55.50
49379;DHT22;35254;47.990;-1.608;2023-05-20T06:19:27;19.60;55.30
49379;DHT22;35254;47.990;-1.608;2023-05-20T06:21:52;19.60;55.50
49379;DHT22;35254;47.990;-1.608;2023-05-20T06:24:18;19.60;55.50
49379;DHT22;35254;47.990;-1.608;2023-05-20T06:26:43;19.50;55.70
49379;DHT22;35254;47.990;-1.608;2023-05-20T06:29:10;19.50;55.70
49379;DHT22;35254;47.990;-1.608;2023-05-20T06:31:36;19.60;55.50
49379;DHT22;35254;47.990;-1.608;2023-05-20T06:34:02;19.50;55.40
49379;DHT22;35254;47.990;-1.608;2023-05-20T06:36:27;19.50;55.40
49379;DHT22;35254;47.990;-1.608;2023-05-20T06:38:53;19.50;55.50
49379;DHT22;35254;47.990;-1.608;2023-05-20T06:41:19;19.50;55.50
49379;DHT22;35254;47.990;-1.608;2023-05-20T06:43:47;19.50;55.40
49379;DHT22;35254;47.990;-1.608;2023-05-20T06:46:12;19.50;55.40
49379;DHT22;35254;47.990;-1.608;2023-05-20T06:48:38;19.50;55.50
49379;DHT22;35254;47.990;-1.608;2023-05-20T06:51:06;19.50;55.70
49379;DHT22;35254;47.990;-1.608;2023-05-20T06:53:33;19.50;55.70
49379;DHT22;35254;47.990;-1.608;2023-05-20T06:55:58;19.50;55.60
49379;DHT22;35254;47.990;-1.608;2023-05-20T06:58:24;19.50;55.80
49379;DHT22;35254;47.990;-1.608;2023-05-20T07:00:49;19.50;55.90
49379;DHT22;35254;47.990;-1.608;2023-05-20T07:03:15;19.50;55.80
49379;DHT22;35254;47.990;-1.608;2023-05-20T07:05:41;19.50;56.00
49379;DHT22;35254;47.990;-1.608;2023-05-20T07:08:06;19.50;55.90
49379;DHT22;35254;47.990;-1.608;2023-05-20T07:10:32;19.50;55.90
49379;DHT22;35254;47.990;-1.608;2023-05-20T07:12:58;19.40;56.30
49379;DHT22;35254;47.990;-1.608;2023-05-20T07:15:24;19.40;56.30
49379;DHT22;35254;47.990;-1.608;2023-05-20T07:17:50;19.40;56.30
49379;DHT22;35254;47.990;-1.608;2023-05-20T07:20:16;19.40;56.30
49379;DHT22;35254;47.990;-1.608;2023-05-20T07:22:41;19.40;56.30
49379;DHT22;35254;47.990;-1.608;2023-05-20T07:25:09;19.40;56.40
49379;DHT22;35254;47.990;-1.608;2023-05-20T07:27:35;19.40;56.30
49379;DHT22;35254;47.990;-1.608;2023-05-20T07:30:00;19.40;56.40
49379;DHT22;35254;47.990;-1.608;2023-05-20T07:32:26;19.40;56.30
49379;DHT22;35254;47.990;-1.608;2023-05-20T07:34:52;19.40;56.60
49379;DHT22;35254;47.990;-1.608;2023-05-20T07:37:17;19.40;56.60
49379;DHT22;35254;47.990;-1.608;2023-05-20T07:39:43;19.40;56.60
49379;DHT22;35254;47.990;-1.608;2023-05-20T07:42:09;19.40;56.70
49379;DHT22;35254;47.990;-1.608;2023-05-20T07:44:34;19.40;56.70
49379;DHT22;35254;47.990;-1.608;2023-05-20T07:47:00;19.40;56.70
49379;DHT22;35254;47.990;-1.608;2023-05-20T07:49:26;19.40;56.80
49379;DHT22;35254;47.990;-1.608;2023-05-20T07:51:52;19.40;56.70
49379;DHT22;35254;47.990;-1.608;2023-05-20T07:54:17;19.30;56.80
49379;DHT22;35254;47.990;-1.608;2023-05-20T07:56:43;19.40;56.80
49379;DHT22;35254;47.990;-1.608;2023-05-20T07:59:08;19.30;56.80
49379;DHT22;35254;47.990;-1.608;2023-05-20T08:01:34;19.30;56.90
49379;DHT22;35254;47.990;-1.608;2023-05-20T08:04:00;19.30;57.00
49379;DHT22;35254;47.990;-1.608;2023-05-20T08:06:26;19.30;57.10
49379;DHT22;35254;47.990;-1.608;2023-05-20T08:08:52;19.30;57.10
49379;DHT22;35254;47.990;-1.608;2023-05-20T08:11:20;19.30;57.10
49379;DHT22;35254;47.990;-1.608;2023-05-20T08:13:47;19.30;57.20
49379;DHT22;35254;47.990;-1.608;2023-05-20T08:16:12;19.30;57.40
49379;DHT22;35254;47.990;-1.608;2023-05-20T08:18:38;19.30;57.30
49379;DHT22;35254;47.990;-1.608;2023-05-20T08:21:04;19.30;57.30
49379;DHT22;35254;47.990;-1.608;2023-05-20T08:23:33;19.30;57.30
49379;DHT22;35254;47.990;-1.608;2023-05-20T08:25:59;19.30;57.20
49379;DHT22;35254;47.990;-1.608;2023-05-20T08:28:27;19.30;57.30
49379;DHT22;35254;47.990;-1.608;2023-05-20T08:30:53;19.40;57.10
49379;DHT22;35254;47.990;-1.608;2023-05-20T08:33:19;19.30;57.00
49379;DHT22;35254;47.990;-1.608;2023-05-20T08:35:46;19.30;57.00
49379;DHT22;35254;47.990;-1.608;2023-05-20T08:38:12;19.30;57.20
49379;DHT22;35254;47.990;-1.608;2023-05-20T08:40:38;19.30;57.00
49379;DHT22;35254;47.990;-1.608;2023-05-20T08:43:04;19.30;57.20
49379;DHT22;35254;47.990;-1.608;2023-05-20T08:45:33;19.30;57.20
49379;DHT22;35254;47.990;-1.608;2023-05-20T08:48:02;19.30;56.90
49379;DHT22;35254;47.990;-1.608;2023-05-20T08:50:29;19.30;56.90
49379;DHT22;35254;47.990;-1.608;2023-05-20T08:52:55;19.30;57.10
49379;DHT22;35254;47.990;-1.608;2023-05-20T08:55:38;19.30;57.00
49379;DHT22;35254;47.990;-1.608;2023-05-20T08:58:06;19.30;57.20
49379;DHT22;35254;47.990;-1.608;2023-05-20T09:00:32;19.30;57.20
49379;DHT22;35254;47.990;-1.608;2023-05-20T09:02:58;19.30;57.30
49379;DHT22;35254;47.990;-1.608;2023-05-20T09:05:24;19.30;57.40
49379;DHT22;35254;47.990;-1.608;2023-05-20T09:07:50;19.30;57.30
49379;DHT22;35254;47.990;-1.608;2023-05-20T09:10:16;19.30;57.30
49379;DHT22;35254;47.990;-1.608;2023-05-20T09:12:42;19.30;57.50
49379;DHT22;35254;47.990;-1.608;2023-05-20T09:15:08;19.30;57.10
49379;DHT22;35254;47.990;-1.608;2023-05-20T09:17:37;19.30;57.40
49379;DHT22;35254;47.990;-1.608;2023-05-20T09:20:08;19.30;57.20
49379;DHT22;35254;47.990;-1.608;2023-05-20T09:22:34;19.30;57.20
49379;DHT22;35254;47.990;-1.608;2023-05-20T09:24:59;19.30;57.20
49379;DHT22;35254;47.990;-1.608;2023-05-20T09:27:25;19.30;57.30
49379;DHT22;35254;47.990;-1.608;2023-05-20T09:29:51;19.30;57.10
49379;DHT22;35254;47.990;-1.608;2023-05-20T09:32:20;19.30;57.10
49379;DHT22;35254;47.990;-1.608;2023-05-20T09:34:48;19.30;57.20
49379;DHT22;35254;47.990;-1.608;2023-05-20T09:37:17;19.30;57.10
49379;DHT22;35254;47.990;-1.608;2023-05-20T09:42:19;19.30;57.10
49379;DHT22;35254;47.990;-1.608;2023-05-20T09:44:47;19.30;57.40
49379;DHT22;35254;47.990;-1.608;2023-05-20T09:47:13;19.30;57.30
49379;DHT22;35254;47.990;-1.608;2023-05-20T09:49:40;19.20;57.30
49379;DHT22;35254;47.990;-1.608;2023-05-20T09:52:07;19.20;57.30
49379;DHT22;35254;47.990;-1.608;2023-05-20T09:54:34;19.30;57.30
49379;DHT22;35254;47.990;-1.608;2023-05-20T09:57:01;19.30;57.40
49379;DHT22;35254;47.990;-1.608;2023-05-20T09:59:29;19.30;57.30
49379;DHT22;35254;47.990;-1.608;2023-05-20T10:01:55;19.30;57.20
49379;DHT22;35254;47.990;-1.608;2023-05-20T10:04:22;19.30;57.50
49379;DHT22;35254;47.990;-1.608;2023-05-20T10:07:21;19.30;57.30
49379;DHT22;35254;47.990;-1.608;2023-05-20T10:10:08;19.30;57.30
49379;DHT22;35254;47.990;-1.608;2023-05-20T10:13:07;19.30;57.40
49379;DHT22;35254;47.990;-1.608;2023-05-20T10:20:55;19.30;57.40
49379;DHT22;35254;47.990;-1.608;2023-05-20T10:25:52;19.20;57.50
49379;DHT22;35254;47.990;-1.608;2023-05-20T10:28:31;19.30;57.50
49379;DHT22;35254;47.990;-1.608;2023-05-20T10:30:58;19.30;57.20
49379;DHT22;35254;47.990;-1.608;2023-05-20T10:33:25;19.20;57.30
49379;DHT22;35254;47.990;-1.608;2023-05-20T10:35:53;19.30;57.20
49379;DHT22;35254;47.990;-1.608;2023-05-20T10:38:19;19.20;57.50
49379;DHT22;35254;47.990;-1.608;2023-05-20T10:40:46;19.20;57.70
49379;DHT22;35254;47.990;-1.608;2023-05-20T10:43:16;19.20;57.40
49379;DHT22;35254;47.990;-1.608;2023-05-20T10:45:56;19.20;57.40
49379;DHT22;35254;47.990;-1.608;2023-05-20T10:48:24;19.20;57.40
49379;DHT22;35254;47.990;-1.608;2023-05-20T10:50:53;19.20;57.50
49379;DHT22;35254;47.990;-1.608;2023-05-20T10:53:21;19.20;57.50
49379;DHT22;35254;47.990;-1.608;2023-05-20T10:55:52;19.30;57.50
49379;DHT22;35254;47.990;-1.608;2023-05-20T10:58:21;19.20;57.50
49379;DHT22;35254;47.990;-1.608;2023-05-20T11:00:48;19.30;57.60
49379;DHT22;35254;47.990;-1.608;2023-05-20T11:03:15;19.30;57.80
49379;DHT22;35254;47.990;-1.608;2023-05-20T11:05:44;19.30;57.70
49379;DHT22;35254;47.990;-1.608;2023-05-20T11:08:11;19.30;57.80
49379;DHT22;35254;47.990;-1.608;2023-05-20T11:10:37;19.20;57.70
49379;DHT22;35254;47.990;-1.608;2023-05-20T11:13:03;19.30;57.60
49379;DHT22;35254;47.990;-1.608;2023-05-20T11:15:34;19.20;57.80
49379;DHT22;35254;47.990;-1.608;2023-05-20T11:18:03;19.30;57.60
49379;DHT22;35254;47.990;-1.608;2023-05-20T11:20:29;19.30;57.60
49379;DHT22;35254;47.990;-1.608;2023-05-20T11:22:59;19.30;57.70
49379;DHT22;35254;47.990;-1.608;2023-05-20T11:25:26;19.20;57.50
49379;DHT22;35254;47.990;-1.608;2023-05-20T11:27:53;19.30;57.70
49379;DHT22;35254;47.990;-1.608;2023-05-20T11:30:19;19.30;57.70
49379;DHT22;35254;47.990;-1.608;2023-05-20T11:33:01;19.20;57.50
49379;DHT22;35254;47.990;-1.608;2023-05-20T11:35:29;19.20;57.60
49379;DHT22;35254;47.990;-1.608;2023-05-20T11:38:04;19.30;57.80
49379;DHT22;35254;47.990;-1.608;2023-05-20T11:40:31;19.20;57.40
49379;DHT22;35254;47.990;-1.608;2023-05-20T11:42:59;19.30;57.20
49379;DHT22;35254;47.990;-1.608;2023-05-20T11:45:25;19.30;57.30
49379;DHT22;35254;47.990;-1.608;2023-05-20T11:48:04;19.20;57.40
49379;DHT22;35254;47.990;-1.608;2023-05-20T11:50:35;19.30;57.50
49379;DHT22;35254;47.990;-1.608;2023-05-20T11:53:08;19.30;57.70
49379;DHT22;35254;47.990;-1.608;2023-05-20T11:55:44;19.30;57.60
49379;DHT22;35254;47.990;-1.608;2023-05-20T11:58:10;19.30;57.90
49379;DHT22;35254;47.990;-1.608;2023-05-20T12:00:35;19.30;57.70
49379;DHT22;35254;47.990;-1.608;2023-05-20T12:03:01;19.20;57.80
49379;DHT22;35254;47.990;-1.608;2023-05-20T12:05:27;19.30;57.80
49379;DHT22;35254;47.990;-1.608;2023-05-20T12:07:52;19.30;57.90
49379;DHT22;35254;47.990;-1.608;2023-05-20T12:10:18;19.30;57.60
49379;DHT22;35254;47.990;-1.608;2023-05-20T12:12:44;19.30;57.80
49379;DHT22;35254;47.990;-1.608;2023-05-20T12:15:10;19.30;57.90
49379;DHT22;35254;47.990;-1.608;2023-05-20T12:17:50;19.30;58.00
49379;DHT22;35254;47.990;-1.608;2023-05-20T12:20:17;19.30;57.40
49379;DHT22;35254;47.990;-1.608;2023-05-20T12:22:44;19.30;57.40
49379;DHT22;35254;47.990;-1.608;2023-05-20T12:25:13;19.30;57.30
49379;DHT22;35254;47.990;-1.608;2023-05-20T12:27:40;19.20;57.40
49379;DHT22;35254;47.990;-1.608;2023-05-20T12:30:07;19.20;57.10
49379;DHT22;35254;47.990;-1.608;2023-05-20T12:32:37;19.20;57.10
49379;DHT22;35254;47.990;-1.608;2023-05-20T12:35:03;19.20;57.20
49379;DHT22;35254;47.990;-1.608;2023-05-20T12:37:29;19.30;57.00
49379;DHT22;35254;47.990;-1.608;2023-05-20T12:39:55;19.20;57.40
49379;DHT22;35254;47.990;-1.608;2023-05-20T12:42:20;19.30;57.50
49379;DHT22;35254;47.990;-1.608;2023-05-20T12:44:46;19.20;57.20
49379;DHT22;35254;47.990;-1.608;2023-05-20T12:47:12;19.30;57.40
49379;DHT22;35254;47.990;-1.608;2023-05-20T12:49:37;19.30;57.50
49379;DHT22;35254;47.990;-1.608;2023-05-20T12:52:03;19.30;57.60
49379;DHT22;35254;47.990;-1.608;2023-05-20T12:54:29;19.30;57.80
49379;DHT22;35254;47.990;-1.608;2023-05-20T12:56:54;19.30;57.50
49379;DHT22;35254;47.990;-1.608;2023-05-20T12:59:20;19.30;57.70
49379;DHT22;35254;47.990;-1.608;2023-05-20T13:01:46;19.30;57.80
49379;DHT22;35254;47.990;-1.608;2023-05-20T13:04:12;19.30;58.00
49379;DHT22;35254;47.990;-1.608;2023-05-20T13:06:37;19.30;57.90
49379;DHT22;35254;47.990;-1.608;2023-05-20T13:09:03;19.30;57.90
49379;DHT22;35254;47.990;-1.608;2023-05-20T13:11:29;19.30;57.90
49379;DHT22;35254;47.990;-1.608;2023-05-20T13:13:55;19.20;57.80
49379;DHT22;35254;47.990;-1.608;2023-05-20T13:16:24;19.30;57.80
49379;DHT22;35254;47.990;-1.608;2023-05-20T13:18:50;19.30;57.80
49379;DHT22;35254;47.990;-1.608;2023-05-20T13:21:16;19.30;57.90
49379;DHT22;35254;47.990;-1.608;2023-05-20T13:23:42;19.30;57.80
49379;DHT22;35254;47.990;-1.608;2023-05-20T13:26:08;19.30;57.60
49379;DHT22;35254;47.990;-1.608;2023-05-20T13:28:34;19.30;57.60
49379;DHT22;35254;47.990;-1.608;2023-05-20T13:31:01;19.30;57.60
49379;DHT22;35254;47.990;-1.608;2023-05-20T13:33:27;19.30;57.60
49379;DHT22;35254;47.990;-1.608;2023-05-20T13:35:53;19.30;57.80
49379;DHT22;35254;47.990;-1.608;2023-05-20T13:38:19;19.30;57.50
49379;DHT22;35254;47.990;-1.608;2023-05-20T13:40:44;19.30;57.60
49379;DHT22;35254;47.990;-1.608;2023-05-20T13:43:10;19.30;57.50
49379;DHT22;35254;47.990;-1.608;2023-05-20T13:45:35;19.30;57.80
49379;DHT22;35254;47.990;-1.608;2023-05-20T13:48:01;19.30;57.70
49379;DHT22;35254;47.990;-1.608;2023-05-20T13:50:27;19.30;57.50
49379;DHT22;35254;47.990;-1.608;2023-05-20T13:52:53;19.40;58.00
49379;DHT22;35254;47.990;-1.608;2023-05-20T13:55:18;19.30;57.60
49379;DHT22;35254;47.990;-1.608;2023-05-20T13:57:44;19.30;57.80
49379;DHT22;35254;47.990;-1.608;2023-05-20T14:00:10;19.40;57.80
49379;DHT22;35254;47.990;-1.608;2023-05-20T14:02:36;19.40;58.00
49379;DHT22;35254;47.990;-1.608;2023-05-20T14:05:02;19.30;57.90
49379;DHT22;35254;47.990;-1.608;2023-05-20T14:07:27;19.30;57.70
49379;DHT22;35254;47.990;-1.608;2023-05-20T14:09:53;19.40;57.80
49379;DHT22;35254;47.990;-1.608;2023-05-20T14:12:19;19.30;57.80
49379;DHT22;35254;47.990;-1.608;2023-05-20T14:14:44;19.40;57.50
49379;DHT22;35254;47.990;-1.608;2023-05-20T14:17:10;19.40;57.80
49379;DHT22;35254;47.990;-1.608;2023-05-20T14:19:36;19.40;57.50
49379;DHT22;35254;47.990;-1.608;2023-05-20T14:22:01;19.40;57.60
49379;DHT22;35254;47.990;-1.608;2023-05-20T14:24:28;19.40;57.50
49379;DHT22;35254;47.990;-1.608;2023-05-20T14:26:53;19.40;57.40
49379;DHT22;35254;47.990;-1.608;2023-05-20T14:29:19;19.40;57.30
49379;DHT22;35254;47.990;-1.608;2023-05-20T14:31:45;19.30;57.40
49379;DHT22;35254;47.990;-1.608;2023-05-20T14:34:10;19.40;57.10
49379;DHT22;35254;47.990;-1.608;2023-05-20T14:36:36;19.40;57.00
49379;DHT22;35254;47.990;-1.608;2023-05-20T14:39:02;19.40;57.30
49379;DHT22;35254;47.990;-1.608;2023-05-20T14:41:28;19.40;57.10
49379;DHT22;35254;47.990;-1.608;2023-05-20T14:43:54;19.40;57.10
49379;DHT22;35254;47.990;-1.608;2023-05-20T14:46:19;19.40;57.20
49379;DHT22;35254;47.990;-1.608;2023-05-20T14:48:45;19.40;57.40
49379;DHT22;35254;47.990;-1.608;2023-05-20T14:51:11;19.40;57.50
49379;DHT22;35254;47.990;-1.608;2023-05-20T14:53:37;19.40;57.40
49379;DHT22;35254;47.990;-1.608;2023-05-20T14:56:02;19.40;57.30
49379;DHT22;35254;47.990;-1.608;2023-05-20T14:58:28;19.40;57.60
49379;DHT22;35254;47.990;-1.608;2023-05-20T15:00:54;19.40;57.60
49379;DHT22;35254;47.990;-1.608;2023-05-20T15:03:20;19.40;57.50
49379;DHT22;35254;47.990;-1.608;2023-05-20T15:05:47;19.40;57.30
49379;DHT22;35254;47.990;-1.608;2023-05-20T15:08:13;19.40;57.30
49379;DHT22;35254;47.990;-1.608;2023-05-20T15:10:39;19.40;57.10
49379;DHT22;35254;47.990;-1.608;2023-05-20T15:13:04;19.40;56.90
49379;DHT22;35254;47.990;-1.608;2023-05-20T15:15:30;19.40;56.90
49379;DHT22;35254;47.990;-1.608;2023-05-20T15:17:56;19.40;57.00
49379;DHT22;35254;47.990;-1.608;2023-05-20T15:20:22;19.40;56.90
49379;DHT22;35254;47.990;-1.608;2023-05-20T15:22:47;19.40;56.80